createdAt,value
2023-02-19T00:00:36.710Z,76.94
2023-02-19T00:02:38.830Z,76.84
2023-02-19T00:04:40.889Z,76.76
2023-02-19T00:06:43.981Z,77.14
2023-02-19T00:08:45.946Z,78.34
2023-02-19T00:10:47.991Z,78.55
2023-02-19T00:12:50.012Z,78.48
2023-02-19T00:14:52.185Z,80.05
2023-02-19T00:16:56.783Z,79.92
2023-02-19T00:19:00.743Z,78.87
2023-02-19T00:21:03.894Z,78.87
2023-02-19T00:23:05.906Z,79.17
2023-02-19T00:25:09.909Z,79.95
2023-02-19T00:27:12.812Z,79.24
2023-02-19T00:29:22.255Z,80.16
2023-02-19T00:31:33.531Z,79.38
2023-02-19T00:33:35.650Z,78.46
2023-02-19T00:35:37.965Z,78.46
2023-02-19T00:37:45.735Z,77.99
2023-02-19T00:39:47.615Z,76.24
2023-02-19T00:41:50.890Z,76.52
2023-02-19T00:43:58.244Z,76.57
2023-02-19T00:46:00.268Z,77.42
2023-02-19T00:48:02.280Z,76.40
2023-02-19T00:50:04.421Z,77.12
2023-02-19T00:52:06.368Z,77.10
2023-02-19T00:54:08.258Z,76.92
2023-02-19T00:56:11.416Z,77.38
2023-02-19T00:58:13.322Z,76.89
2023-02-19T01:00:15.443Z,76.35
2023-02-19T01:02:17.433Z,76.12
2023-02-19T01:04:19.605Z,76.84
2023-02-19T01:06:21.978Z,76.77
2023-02-19T01:08:24.178Z,76.48
2023-02-19T01:10:27.091Z,76.60
2023-02-19T01:12:29.110Z,76.73
2023-02-19T01:14:31.161Z,76.42
2023-02-19T01:16:35.215Z,77.22
2023-02-19T01:18:37.440Z,77.97
2023-02-19T01:20:44.100Z,77.44
2023-02-19T01:22:45.956Z,77.63
2023-02-19T01:24:48.010Z,76.81
2023-02-19T01:26:50.037Z,77.38
2023-02-19T01:28:52.502Z,77.74
2023-02-19T01:30:54.924Z,75.59
2023-02-19T01:32:56.961Z,75.87
2023-02-19T01:34:59.975Z,76.55
2023-02-19T01:37:02.378Z,75.33
2023-02-19T01:39:06.489Z,75.23
2023-02-19T01:41:11.281Z,74.29
2023-02-19T01:43:16.618Z,75.11
2023-02-19T01:45:26.828Z,75.27
2023-02-19T01:47:29.884Z,75.48
2023-02-19T01:49:40.391Z,75.95
2023-02-19T01:51:48.451Z,75.70
2023-02-19T01:53:57.720Z,76.26
2023-02-19T01:56:01.419Z,76.11
2023-02-19T01:58:07.192Z,75.75
2023-02-19T02:00:13.379Z,76.50
2023-02-19T02:02:15.334Z,77.10
2023-02-19T02:04:18.111Z,76.46
2023-02-19T02:06:25.193Z,76.94
2023-02-19T02:08:46.237Z,77.43
2023-02-19T02:10:48.428Z,76.92
2023-02-19T02:12:56.589Z,77.49
2023-02-19T02:14:58.573Z,77.64
2023-02-19T02:17:17.320Z,78.34
2023-02-19T02:19:48.245Z,77.71
2023-02-19T02:22:07.998Z,77.99
2023-02-19T02:24:47.563Z,79.04
2023-02-19T02:27:08.133Z,78.39
2023-02-19T02:29:09.999Z,79.58
2023-02-19T02:31:36.086Z,79.28
2023-02-19T02:33:55.539Z,79.26
2023-02-19T02:36:09.092Z,79.83
2023-02-19T02:38:13.906Z,79.86
2023-02-19T02:40:18.922Z,80.21
2023-02-19T02:42:29.812Z,80.16
2023-02-19T02:44:36.286Z,80.13
2023-02-19T02:46:42.571Z,79.99
2023-02-19T02:49:02.302Z,79.17
2023-02-19T02:51:27.062Z,79.92
2023-02-19T02:54:29.266Z,79.76
2023-02-19T02:56:33.046Z,80.31
2023-02-19T02:58:35.901Z,79.44
2023-02-19T03:00:57.869Z,79.86
2023-02-19T03:03:00.026Z,79.62
2023-02-19T03:05:32.050Z,79.76
2023-02-19T03:07:41.865Z,78.68
2023-02-19T03:09:44.983Z,79.83
2023-02-19T03:12:09.717Z,79.25
2023-02-19T03:14:37.228Z,79.12
2023-02-19T03:17:00.748Z,78.46
2023-02-19T03:19:20.232Z,79.25
2023-02-19T03:21:23.661Z,78.38
2023-02-19T03:23:50.358Z,78.28
2023-02-19T03:26:04.347Z,78.83
2023-02-19T03:28:11.360Z,78.62
2023-02-19T03:30:19.491Z,78.05
2023-02-19T03:32:34.472Z,78.34
2023-02-19T03:34:44.385Z,77.99
2023-02-19T03:36:54.201Z,78.66
2023-02-19T03:39:07.941Z,78.31
2023-02-19T03:41:18.760Z,78.16
2023-02-19T03:43:56.436Z,78.00
2023-02-19T03:46:30.862Z,78.41
2023-02-19T03:48:38.628Z,77.21
2023-02-19T03:50:43.593Z,77.38
2023-02-19T03:53:04.015Z,77.73
2023-02-19T03:55:17.068Z,78.38
2023-02-19T03:57:31.605Z,78.06
2023-02-19T03:59:42.214Z,78.67
2023-02-19T04:01:56.958Z,78.36
2023-02-19T04:04:06.581Z,77.93
2023-02-19T04:06:15.476Z,77.58
2023-02-19T04:08:20.969Z,78.74
2023-02-19T04:10:24.167Z,78.65
2023-02-19T04:12:27.302Z,78.50
2023-02-19T04:14:36.710Z,78.88
2023-02-19T04:16:43.154Z,77.95
2023-02-19T04:18:49.722Z,78.12
2023-02-19T04:20:52.708Z,78.56
2023-02-19T04:22:55.300Z,77.87
2023-02-19T04:24:58.406Z,77.88
2023-02-19T04:27:01.686Z,78.80
2023-02-19T04:29:04.788Z,78.28
2023-02-19T04:31:09.401Z,78.74
2023-02-19T04:33:11.652Z,78.44
2023-02-19T04:35:13.663Z,78.38
2023-02-19T04:37:15.648Z,78.89
2023-02-19T04:39:17.602Z,79.12
2023-02-19T04:41:19.585Z,79.32
2023-02-19T04:43:21.575Z,78.41
2023-02-19T04:45:23.536Z,79.17
2023-02-19T04:47:26.590Z,78.94
2023-02-19T04:49:28.602Z,78.77
2023-02-19T04:51:30.731Z,79.34
2023-02-19T04:53:32.844Z,78.92
2023-02-19T04:55:39.250Z,79.01
2023-02-19T04:57:42.227Z,78.79
2023-02-19T04:59:44.154Z,79.21
2023-02-19T05:01:46.300Z,78.61
2023-02-19T05:03:48.277Z,79.14
2023-02-19T05:05:50.180Z,79.62
2023-02-19T05:07:52.128Z,79.30
2023-02-19T05:09:54.093Z,78.65
2023-02-19T05:11:55.941Z,79.38
2023-02-19T05:13:57.884Z,79.51
2023-02-19T05:16:02.670Z,79.62
2023-02-19T05:18:04.912Z,79.07
2023-02-19T05:20:07.357Z,79.44
2023-02-19T05:22:09.390Z,79.03
2023-02-19T05:24:11.465Z,78.73
2023-02-19T05:26:20.595Z,78.15
2023-02-19T05:28:28.835Z,78.14
2023-02-19T05:30:30.852Z,78.82
2023-02-19T05:32:35.270Z,78.76
2023-02-19T05:34:37.305Z,78.62
2023-02-19T05:36:40.142Z,78.87
2023-02-19T05:38:42.443Z,78.84
2023-02-19T05:40:47.637Z,79.36
2023-02-19T05:42:49.574Z,78.57
2023-02-19T05:44:51.489Z,78.62
2023-02-19T05:46:53.524Z,78.79
2023-02-19T05:48:56.019Z,78.08
2023-02-19T05:51:04.319Z,78.32
2023-02-19T05:53:06.550Z,78.48
2023-02-19T05:55:08.609Z,78.28
2023-02-19T05:57:10.573Z,78.40
2023-02-19T05:59:24.415Z,78.43
2023-02-19T06:01:29.081Z,78.97
2023-02-19T06:03:31.093Z,78.03
2023-02-19T06:05:33.113Z,78.78
2023-02-19T06:07:35.541Z,78.58
2023-02-19T06:09:38.484Z,78.76
2023-02-19T06:11:40.743Z,78.55
2023-02-19T06:13:42.772Z,77.93
2023-02-19T06:15:44.672Z,78.68
2023-02-19T06:17:46.607Z,79.06
2023-02-19T06:19:48.564Z,78.57
2023-02-19T06:21:51.252Z,78.72
2023-02-19T06:23:54.749Z,78.86
2023-02-19T06:26:09.548Z,79.13
2023-02-19T06:28:11.545Z,78.70
2023-02-19T06:30:13.689Z,78.50
2023-02-19T06:32:16.893Z,79.04
2023-02-19T06:34:19.042Z,79.07
2023-02-19T06:36:21.936Z,77.94
2023-02-19T06:38:23.946Z,78.63
2023-02-19T06:40:25.900Z,78.46
2023-02-19T06:42:27.923Z,78.20
2023-02-19T06:44:29.986Z,79.30
2023-02-19T06:46:31.960Z,78.71
2023-02-19T06:48:34.862Z,78.77
2023-02-19T06:50:38.851Z,78.45
2023-02-19T06:52:41.901Z,78.36
2023-02-19T06:54:43.898Z,78.42
2023-02-19T06:56:47.153Z,78.67
2023-02-19T06:58:50.346Z,78.56
2023-02-19T07:00:53.280Z,78.49
2023-02-19T07:02:56.825Z,78.84
2023-02-19T07:04:58.870Z,79.17
2023-02-19T07:07:01.854Z,78.90
2023-02-19T07:09:05.367Z,78.21
2023-02-19T07:11:07.423Z,78.26
2023-02-19T07:13:09.421Z,78.16
2023-02-19T07:15:11.760Z,77.70
2023-02-19T07:17:13.979Z,77.43
2023-02-19T07:19:16.026Z,77.82
2023-02-19T07:21:21.875Z,78.40
2023-02-19T07:23:23.804Z,77.94
2023-02-19T07:25:29.930Z,76.85
2023-02-19T07:27:32.066Z,77.95
2023-02-19T07:29:34.075Z,77.13
2023-02-19T07:31:37.124Z,76.81
2023-02-19T07:33:39.167Z,77.85
2023-02-19T07:35:51.338Z,76.94
2023-02-19T07:37:53.489Z,77.43
2023-02-19T07:39:57.366Z,76.96
2023-02-19T07:41:59.311Z,77.12
2023-02-19T07:44:03.238Z,78.15
2023-02-19T07:46:11.464Z,76.75
2023-02-19T07:48:13.566Z,77.10
2023-02-19T07:50:16.587Z,77.33
2023-02-19T07:52:18.883Z,76.80
2023-02-19T07:54:24.022Z,76.60
2023-02-19T07:56:26.059Z,77.22
2023-02-19T07:58:28.563Z,76.65
2023-02-19T08:00:30.900Z,77.28
2023-02-19T08:02:52.527Z,76.47
2023-02-19T08:04:54.440Z,77.08
2023-02-19T08:06:56.510Z,76.37
2023-02-19T08:08:58.764Z,76.42
2023-02-19T08:11:21.676Z,77.12
2023-02-19T08:13:27.469Z,76.33
2023-02-19T08:15:30.699Z,75.91
2023-02-19T08:17:32.740Z,75.47
2023-02-19T08:19:34.831Z,75.97
2023-02-19T08:21:43.212Z,76.12
2023-02-19T08:23:51.286Z,75.80
2023-02-19T08:25:57.017Z,75.24
2023-02-19T08:28:00.602Z,75.22
2023-02-19T08:30:02.809Z,75.28
2023-02-19T08:32:05.081Z,76.06
2023-02-19T08:34:07.247Z,76.44
2023-02-19T08:36:10.033Z,75.67
2023-02-19T08:38:16.515Z,75.67
2023-02-19T08:40:19.620Z,74.38
2023-02-19T08:42:21.564Z,73.76
2023-02-19T08:44:26.602Z,72.66
2023-02-19T08:46:34.424Z,74.29
2023-02-19T08:48:37.236Z,74.04
2023-02-19T08:50:40.601Z,72.78
2023-02-19T08:52:47.935Z,72.44
2023-02-19T08:54:49.887Z,73.54
2023-02-19T08:56:54.044Z,73.61
2023-02-19T08:58:57.011Z,72.90
2023-02-19T09:00:59.147Z,73.60
2023-02-19T09:03:01.095Z,73.82
2023-02-19T09:05:03.835Z,72.35
2023-02-19T09:07:08.095Z,72.50
2023-02-19T09:09:10.185Z,73.30
2023-02-19T09:11:12.447Z,72.84
2023-02-19T09:13:14.676Z,72.99
2023-02-19T09:15:16.788Z,72.89
2023-02-19T09:17:19.815Z,73.77
2023-02-19T09:19:21.825Z,72.44
2023-02-19T09:21:23.844Z,72.56
2023-02-19T09:23:25.854Z,73.29
2023-02-19T09:25:27.880Z,71.40
2023-02-19T09:27:31.955Z,71.74
2023-02-19T09:29:34.799Z,72.22
2023-02-19T09:31:36.991Z,71.21
2023-02-19T09:33:42.808Z,70.26
2023-02-19T09:35:44.752Z,70.67
2023-02-19T09:37:55.915Z,70.91
2023-02-19T09:39:57.994Z,71.52
2023-02-19T09:42:23.514Z,71.84
2023-02-19T09:44:31.079Z,72.21
2023-02-19T09:46:49.948Z,71.84
2023-02-19T09:48:56.267Z,72.23
2023-02-19T09:51:02.009Z,72.32
2023-02-19T09:53:20.499Z,71.36
2023-02-19T09:55:34.887Z,70.63
2023-02-19T09:57:44.004Z,71.19
2023-02-19T09:59:50.521Z,70.03
2023-02-19T10:02:02.482Z,69.79
2023-02-19T10:04:11.511Z,69.77
2023-02-19T10:06:32.979Z,68.79
2023-02-19T10:08:38.508Z,68.98
2023-02-19T10:10:41.734Z,68.86
2023-02-19T10:13:24.073Z,70.00
2023-02-19T10:15:35.305Z,69.04
2023-02-19T10:17:40.938Z,69.62
2023-02-19T10:19:48.113Z,69.26
2023-02-19T10:21:53.392Z,69.52
2023-02-19T10:24:01.282Z,68.62
2023-02-19T10:26:03.478Z,66.58
2023-02-19T10:28:15.024Z,65.12
2023-02-19T10:30:25.246Z,64.52
2023-02-19T10:32:29.875Z,64.07
2023-02-19T10:34:33.270Z,63.69
2023-02-19T10:36:42.857Z,63.57
2023-02-19T10:38:48.393Z,63.74
2023-02-19T10:40:58.789Z,63.97
2023-02-19T10:43:04.653Z,64.16
2023-02-19T10:45:22.145Z,64.84
2023-02-19T10:47:26.747Z,64.72
2023-02-19T10:49:38.767Z,64.81
2023-02-19T10:51:42.236Z,65.11
2023-02-19T10:54:03.865Z,64.35
2023-02-19T10:56:14.931Z,64.07
2023-02-19T10:58:28.283Z,65.29
2023-02-19T11:00:31.214Z,63.34
2023-02-19T11:02:33.861Z,63.96
2023-02-19T11:04:38.409Z,62.41
2023-02-19T11:06:41.112Z,62.94
2023-02-19T11:08:57.854Z,61.28
2023-02-19T11:11:00.288Z,60.48
2023-02-19T11:13:05.175Z,61.18
2023-02-19T11:15:29.610Z,61.79
2023-02-19T11:17:32.875Z,63.11
2023-02-19T11:19:39.379Z,61.34
2023-02-19T11:21:41.572Z,61.28
2023-02-19T11:23:49.660Z,61.94
2023-02-19T11:25:57.428Z,61.48
2023-02-19T11:28:08.715Z,61.29
2023-02-19T11:30:39.127Z,61.55
2023-02-19T11:32:41.205Z,61.87
2023-02-19T11:34:43.222Z,62.23
2023-02-19T11:36:46.919Z,61.47
2023-02-19T11:38:49.129Z,59.91
2023-02-19T11:41:27.381Z,61.32
2023-02-19T11:43:35.426Z,60.46
2023-02-19T11:46:13.303Z,61.29
2023-02-19T11:48:23.582Z,62.10
2023-02-19T11:50:25.967Z,62.55
2023-02-19T11:52:51.864Z,61.66
2023-02-19T11:55:09.894Z,62.64
2023-02-19T11:57:34.336Z,61.24
2023-02-19T11:59:41.002Z,62.06
2023-02-19T12:02:27.500Z,62.62
2023-02-19T12:04:52.805Z,62.54
2023-02-19T12:07:13.377Z,61.00
2023-02-19T12:09:19.300Z,61.13
2023-02-19T12:11:54.069Z,59.57
2023-02-19T12:14:28.548Z,60.65
2023-02-19T12:16:34.764Z,60.79
2023-02-19T12:18:40.142Z,61.72
2023-02-19T12:21:05.841Z,61.05
2023-02-19T12:23:38.119Z,60.54
2023-02-19T12:25:58.810Z,61.99
2023-02-19T12:28:27.511Z,61.31
2023-02-19T12:30:49.655Z,60.93
2023-02-19T12:33:26.312Z,60.48
2023-02-19T12:35:46.897Z,59.92
2023-02-19T12:38:05.135Z,59.79
2023-02-19T12:40:34.019Z,57.58
2023-02-19T12:43:03.633Z,57.02
2023-02-19T12:45:18.367Z,57.53
2023-02-19T12:47:25.716Z,58.43
2023-02-19T12:49:40.996Z,57.57
2023-02-19T12:51:50.366Z,58.36
2023-02-19T12:54:13.829Z,57.16
2023-02-19T12:56:29.192Z,58.19
2023-02-19T12:59:03.045Z,57.70
2023-02-19T13:01:07.886Z,58.83
2023-02-19T13:03:33.060Z,58.82
2023-02-19T13:05:51.377Z,59.43
2023-02-19T13:08:26.218Z,57.53
2023-02-19T13:10:47.979Z,59.20
2023-02-19T13:12:51.097Z,58.83
2023-02-19T13:15:10.415Z,58.15
2023-02-19T13:17:27.127Z,58.24
2023-02-19T13:19:32.104Z,59.38
2023-02-19T13:21:57.408Z,59.11
2023-02-19T13:24:06.989Z,59.01
2023-02-19T13:26:37.343Z,59.34
2023-02-19T13:29:10.122Z,57.95
2023-02-19T13:31:45.350Z,59.66
2023-02-19T13:34:26.395Z,60.18
2023-02-19T13:36:30.466Z,58.89
2023-02-19T13:38:42.122Z,58.33
2023-02-19T13:40:58.240Z,57.26
2023-02-19T13:43:06.190Z,58.41
2023-02-19T13:45:28.822Z,58.63
2023-02-19T13:47:50.752Z,56.69
2023-02-19T13:50:10.517Z,56.66
2023-02-19T13:52:30.776Z,55.23
2023-02-19T13:54:41.261Z,54.79
2023-02-19T13:56:44.056Z,54.18
2023-02-19T13:59:21.936Z,56.27
2023-02-19T14:01:54.130Z,57.07
2023-02-19T14:04:19.119Z,58.70
2023-02-19T14:06:22.160Z,58.06
2023-02-19T14:08:50.742Z,56.32
2023-02-19T14:11:03.064Z,56.80
2023-02-19T14:13:09.091Z,57.28
2023-02-19T14:15:49.554Z,56.81
2023-02-19T14:17:51.985Z,57.89
2023-02-19T14:19:59.645Z,57.59
2023-02-19T14:22:01.954Z,57.45
2023-02-19T14:24:05.740Z,57.88
2023-02-19T14:26:10.186Z,56.46
2023-02-19T14:28:16.755Z,56.92
2023-02-19T14:30:23.286Z,57.05
2023-02-19T14:32:26.325Z,55.78
2023-02-19T14:34:31.306Z,54.95
2023-02-19T14:36:51.100Z,55.89
2023-02-19T14:39:00.541Z,54.83
2023-02-19T14:41:05.055Z,54.68
2023-02-19T14:43:18.936Z,53.52
2023-02-19T14:45:22.780Z,54.20
2023-02-19T14:47:31.524Z,55.50
2023-02-19T14:49:50.561Z,55.01
2023-02-19T14:51:58.791Z,55.31
2023-02-19T14:54:14.041Z,55.35
2023-02-19T14:56:33.099Z,56.18
2023-02-19T14:58:37.644Z,55.38
2023-02-19T15:00:45.437Z,56.12
2023-02-19T15:02:48.090Z,55.48
2023-02-19T15:04:51.967Z,56.88
2023-02-19T15:06:58.582Z,57.13
2023-02-19T15:09:07.663Z,57.40
2023-02-19T15:11:24.503Z,56.95
2023-02-19T15:13:32.337Z,57.74
2023-02-19T15:15:40.893Z,58.24
2023-02-19T15:17:43.919Z,56.93
2023-02-19T15:19:48.361Z,56.96
2023-02-19T15:21:51.683Z,56.98
2023-02-19T15:24:02.080Z,57.33
2023-02-19T15:26:06.500Z,58.49
2023-02-19T15:28:33.343Z,58.17
2023-02-19T15:30:37.257Z,57.66
2023-02-19T15:32:40.206Z,58.08
2023-02-19T15:34:55.199Z,59.18
2023-02-19T15:37:09.397Z,59.15
2023-02-19T15:39:41.101Z,58.78
2023-02-19T15:41:45.285Z,59.58
2023-02-19T15:44:11.606Z,59.27
2023-02-19T15:46:24.525Z,59.32
2023-02-19T15:48:37.520Z,58.77
2023-02-19T15:50:45.129Z,57.31
2023-02-19T15:52:59.431Z,58.18
2023-02-19T15:55:30.995Z,57.78
2023-02-19T15:57:39.836Z,57.47
2023-02-19T16:00:03.825Z,58.38
2023-02-19T16:02:16.641Z,57.89
2023-02-19T16:04:21.092Z,57.95
2023-02-19T16:06:26.061Z,58.50
2023-02-19T16:08:35.538Z,58.33
2023-02-19T16:10:39.103Z,57.28
2023-02-19T16:12:42.062Z,58.79
2023-02-19T16:14:47.798Z,58.39
2023-02-19T16:16:54.643Z,59.38
2023-02-19T16:18:58.230Z,57.88
2023-02-19T16:21:06.711Z,57.74
2023-02-19T16:23:16.567Z,57.38
2023-02-19T16:25:28.477Z,58.16
2023-02-19T16:27:35.561Z,58.52
2023-02-19T16:29:39.502Z,58.38
2023-02-19T16:32:02.267Z,58.89
2023-02-19T16:34:32.600Z,57.67
2023-02-19T16:36:42.306Z,58.33
2023-02-19T16:39:16.249Z,58.99
2023-02-19T16:41:27.712Z,58.76
2023-02-19T16:43:51.049Z,59.40
2023-02-19T16:46:00.238Z,58.90
2023-02-19T16:48:05.462Z,58.65
2023-02-19T16:50:16.761Z,58.05
2023-02-19T16:52:23.578Z,58.30
2023-02-19T16:54:26.203Z,58.72
2023-02-19T16:56:40.111Z,59.36
2023-02-19T16:58:43.799Z,58.27
2023-02-19T17:00:49.577Z,58.32
2023-02-19T17:02:57.176Z,58.96
2023-02-19T17:05:02.364Z,58.92
2023-02-19T17:07:15.526Z,59.16
2023-02-19T17:09:18.973Z,59.42
2023-02-19T17:11:21.572Z,58.04
2023-02-19T17:13:38.976Z,58.93
2023-02-19T17:15:43.383Z,58.46
2023-02-19T17:17:48.672Z,58.01
2023-02-19T17:19:55.025Z,58.99
2023-02-19T17:22:00.074Z,58.92
2023-02-19T17:24:04.400Z,58.79
2023-02-19T17:26:07.466Z,59.38
2023-02-19T17:28:11.305Z,59.63
2023-02-19T17:30:21.818Z,59.97
2023-02-19T17:32:25.173Z,60.49
2023-02-19T17:34:29.369Z,60.91
2023-02-19T17:36:34.279Z,60.96
2023-02-19T17:38:37.091Z,60.58
2023-02-19T17:40:41.362Z,60.69
2023-02-19T17:42:49.075Z,60.44
2023-02-19T17:44:53.992Z,60.61
2023-02-19T17:46:57.113Z,60.04
2023-02-19T17:49:04.034Z,59.97
2023-02-19T17:51:06.893Z,59.46
2023-02-19T17:53:10.263Z,59.19
2023-02-19T17:55:15.947Z,60.18
2023-02-19T17:57:19.517Z,59.30
2023-02-19T17:59:23.122Z,59.97
2023-02-19T18:01:26.376Z,58.92
2023-02-19T18:03:30.801Z,58.61
2023-02-19T18:05:33.976Z,58.82
2023-02-19T18:07:36.874Z,59.14
2023-02-19T18:09:41.346Z,58.26
2023-02-19T18:11:47.810Z,58.93
2023-02-19T18:13:52.963Z,57.87
2023-02-19T18:15:56.016Z,58.36
2023-02-19T18:18:01.301Z,58.35
2023-02-19T18:20:07.917Z,58.72
2023-02-19T18:22:10.969Z,58.37
2023-02-19T18:24:13.883Z,58.28
2023-02-19T18:26:21.641Z,58.96
2023-02-19T18:28:26.300Z,59.40
2023-02-19T18:30:30.682Z,59.46
2023-02-19T18:32:36.174Z,59.51
2023-02-19T18:34:39.326Z,59.85
2023-02-19T18:36:50.877Z,60.26
2023-02-19T18:38:53.845Z,59.97
2023-02-19T18:41:10.549Z,61.02
2023-02-19T18:43:16.118Z,60.52
2023-02-19T18:45:22.009Z,60.76
2023-02-19T18:47:27.890Z,60.79
2023-02-19T18:49:38.762Z,60.99
2023-02-19T18:51:41.798Z,61.31
2023-02-19T18:53:45.064Z,61.30
2023-02-19T18:55:48.035Z,60.61
2023-02-19T18:57:51.440Z,61.12
2023-02-19T18:59:55.864Z,61.54
2023-02-19T19:01:59.130Z,62.06
2023-02-19T19:04:02.565Z,61.32
2023-02-19T19:06:06.024Z,60.79
2023-02-19T19:08:09.151Z,61.50
2023-02-19T19:10:15.854Z,61.03
2023-02-19T19:12:20.168Z,60.78
2023-02-19T19:14:24.914Z,60.34
2023-02-19T19:16:30.570Z,60.28
2023-02-19T19:18:38.846Z,60.05
2023-02-19T19:20:44.261Z,60.26
2023-02-19T19:22:51.394Z,60.03
2023-02-19T19:24:58.461Z,59.90
2023-02-19T19:27:01.663Z,60.05
2023-02-19T19:29:05.193Z,60.44
2023-02-19T19:31:08.318Z,59.32
2023-02-19T19:33:12.140Z,59.23
2023-02-19T19:35:18.867Z,59.02
2023-02-19T19:37:22.136Z,59.26
2023-02-19T19:39:31.050Z,58.92
2023-02-19T19:41:34.382Z,59.36
2023-02-19T19:43:38.115Z,59.89
2023-02-19T19:45:40.919Z,59.84
2023-02-19T19:47:45.134Z,59.79
2023-02-19T19:49:50.793Z,60.08
2023-02-19T19:51:53.888Z,60.48
2023-02-19T19:53:57.037Z,60.24
2023-02-19T19:56:04.388Z,59.81
2023-02-19T19:58:07.243Z,60.67
2023-02-19T20:00:18.995Z,60.01
2023-02-19T20:02:24.798Z,59.38
2023-02-19T20:04:30.826Z,59.20
2023-02-19T20:06:34.819Z,59.37
2023-02-19T20:08:38.673Z,59.11
2023-02-19T20:10:45.958Z,59.72
2023-02-19T20:12:50.065Z,59.31
2023-02-19T20:14:53.681Z,60.63
2023-02-19T20:19:16.153Z,59.79
2023-02-19T20:21:18.946Z,59.89
2023-02-19T20:23:22.941Z,59.52
2023-02-19T20:25:25.974Z,60.45
2023-02-19T20:27:30.092Z,60.36
2023-02-19T20:29:34.995Z,61.40
2023-02-19T20:31:40.160Z,60.65
2023-02-19T20:33:44.225Z,60.50
2023-02-19T20:35:47.370Z,60.99
2023-02-19T20:37:50.330Z,60.82
2023-02-19T20:39:53.267Z,61.20
2023-02-19T20:41:59.097Z,60.35
2023-02-19T20:44:02.175Z,60.71
2023-02-19T20:46:05.189Z,60.65
2023-02-19T20:48:08.225Z,61.36
2023-02-19T20:50:19.612Z,60.93
2023-02-19T20:52:25.083Z,60.74
2023-02-19T20:54:31.790Z,61.24
2023-02-19T20:56:35.395Z,61.17
2023-02-19T20:58:37.771Z,60.85
2023-02-19T21:00:41.627Z,60.27
2023-02-19T21:02:44.735Z,60.58
2023-02-19T21:04:48.675Z,60.45
2023-02-19T21:06:52.570Z,60.37
2023-02-19T21:08:55.077Z,60.65
2023-02-19T21:10:57.990Z,60.56
2023-02-19T21:13:00.727Z,61.10
2023-02-19T21:15:03.671Z,61.88
2023-02-19T21:17:08.760Z,61.91
2023-02-19T21:19:11.686Z,61.22
2023-02-19T21:21:20.855Z,61.61
2023-02-19T21:23:24.592Z,61.40
2023-02-19T21:25:27.501Z,61.54
2023-02-19T21:27:29.766Z,61.45
2023-02-19T21:29:32.192Z,60.68
2023-02-19T21:31:44.155Z,61.38
2023-02-19T21:33:49.688Z,61.56
2023-02-19T21:35:52.950Z,62.30
2023-02-19T21:37:57.742Z,61.78
2023-02-19T21:40:01.539Z,62.06
2023-02-19T21:42:10.465Z,62.27
2023-02-19T21:44:17.088Z,62.42
2023-02-19T21:46:20.749Z,62.70
2023-02-19T21:48:23.213Z,62.44
2023-02-19T21:50:25.414Z,62.77
2023-02-19T21:52:35.597Z,63.79
2023-02-19T21:54:38.725Z,63.49
2023-02-19T21:56:42.412Z,64.16
2023-02-19T21:58:45.876Z,64.53
2023-02-19T22:00:48.135Z,64.58
2023-02-19T22:02:50.674Z,64.00
2023-02-19T22:04:54.597Z,65.31
2023-02-19T22:06:57.258Z,65.33
2023-02-19T22:09:00.667Z,64.96
2023-02-19T22:11:02.588Z,65.93
2023-02-19T22:13:04.640Z,65.72
2023-02-19T22:15:09.471Z,65.79
2023-02-19T22:17:12.741Z,66.38
2023-02-19T22:19:18.800Z,66.45
2023-02-19T22:21:22.480Z,66.80
2023-02-19T22:23:24.496Z,67.31
2023-02-19T22:25:26.559Z,67.08
2023-02-19T22:27:29.653Z,67.88
2023-02-19T22:29:31.751Z,68.40
2023-02-19T22:31:35.934Z,67.80
2023-02-19T22:33:38.023Z,68.29
2023-02-19T22:35:41.463Z,67.98
2023-02-19T22:37:44.458Z,67.55
2023-02-19T22:39:46.453Z,68.82
2023-02-19T22:41:51.830Z,68.18
2023-02-19T22:43:57.936Z,68.29
2023-02-19T22:45:59.994Z,68.31
2023-02-19T22:48:02.011Z,68.60
2023-02-19T22:50:07.676Z,68.44
2023-02-19T22:52:10.573Z,68.65
2023-02-19T22:54:12.597Z,68.28
2023-02-19T22:56:17.160Z,67.86
2023-02-19T22:58:19.124Z,68.36
2023-02-19T23:00:22.001Z,68.22
2023-02-19T23:02:24.018Z,68.01
2023-02-19T23:04:26.740Z,67.98
2023-02-19T23:06:31.791Z,67.56
2023-02-19T23:08:33.694Z,67.41
2023-02-19T23:10:35.699Z,67.70
2023-02-19T23:12:38.522Z,67.79
2023-02-19T23:14:41.556Z,67.93
2023-02-19T23:16:43.685Z,67.65
2023-02-19T23:18:46.429Z,68.16
2023-02-19T23:20:50.344Z,68.12
2023-02-19T23:22:59.047Z,67.99
2023-02-19T23:25:01.726Z,68.70
2023-02-19T23:27:03.774Z,68.66
2023-02-19T23:29:05.734Z,67.83
2023-02-19T23:31:08.154Z,68.81
2023-02-19T23:33:10.152Z,68.54
2023-02-19T23:35:12.129Z,68.08
2023-02-19T23:37:15.270Z,68.23
2023-02-19T23:39:20.564Z,68.46
2023-02-19T23:41:23.577Z,69.14
2023-02-19T23:43:26.533Z,69.30
2023-02-19T23:45:31.424Z,70.68
2023-02-19T23:47:33.416Z,70.99
2023-02-19T23:49:36.630Z,70.90
2023-02-19T23:51:38.643Z,71.50
2023-02-19T23:53:40.693Z,70.83
2023-02-19T23:55:42.834Z,71.59
2023-02-19T23:57:44.777Z,70.63
2023-02-19T23:59:49.351Z,70.99
